createdAt,value
2018-07-08T00:00:45.521Z,101484.27
2018-07-08T00:03:14.616Z,101480.17
2018-07-08T00:05:43.271Z,101484.08
2018-07-08T00:08:11.989Z,101485.42
2018-07-08T00:10:42.652Z,101490.08
2018-07-08T00:13:11.344Z,101494.59
2018-07-08T00:15:40.203Z,101488.30
2018-07-08T00:18:09.291Z,101483.25
2018-07-08T00:20:38.003Z,101487.31
2018-07-08T00:23:06.772Z,101489.28
2018-07-08T00:25:35.750Z,101489.24
2018-07-08T00:28:04.623Z,101493.95
2018-07-08T00:30:33.477Z,101490.08
2018-07-08T00:33:02.778Z,101489.09
2018-07-08T00:35:31.872Z,101483.88
2018-07-08T00:38:02.050Z,101482.26
2018-07-08T00:40:31.219Z,101483.92
2018-07-08T00:43:00.223Z,101482.57
2018-07-08T00:45:29.353Z,101482.12
2018-07-08T00:47:58.667Z,101483.92
2018-07-08T00:50:27.518Z,101483.61
2018-07-08T00:52:56.298Z,101482.61
2018-07-08T00:55:24.992Z,101481.92
2018-07-08T00:57:53.721Z,101484.84
2018-07-08T01:00:37.894Z,101480.81
2018-07-08T01:03:09.482Z,101484.04
2018-07-08T01:05:38.420Z,101478.84
2018-07-08T01:08:07.147Z,101484.87
2018-07-08T01:10:35.942Z,101494.65
2018-07-08T01:13:04.816Z,101494.44
2018-07-08T01:15:33.568Z,101487.37
2018-07-08T01:18:02.298Z,101489.03
2018-07-08T01:20:31.025Z,101494.44
2018-07-08T01:22:59.663Z,101497.87
2018-07-08T01:25:39.382Z,101501.62
2018-07-08T01:28:08.725Z,101501.30
2018-07-08T01:30:37.492Z,101506.84
2018-07-08T01:33:06.587Z,101503.52
2018-07-08T01:35:35.345Z,101499.91
2018-07-08T01:38:04.038Z,101497.41
2018-07-08T01:40:32.680Z,101492.45
2018-07-08T01:43:01.358Z,101498.89
2018-07-08T01:45:30.047Z,101496.34
2018-07-08T01:47:58.803Z,101503.85
2018-07-08T01:50:27.463Z,101497.90
2018-07-08T01:52:56.112Z,101503.54
2018-07-08T01:55:24.981Z,101511.84
2018-07-08T01:57:53.644Z,101512.06
2018-07-08T02:00:22.385Z,101510.72
2018-07-08T02:02:51.475Z,101512.98
2018-07-08T02:05:20.293Z,101515.41
2018-07-08T02:07:48.969Z,101511.13
2018-07-08T02:10:17.736Z,101517.78
2018-07-08T02:12:46.884Z,101513.85
2018-07-08T02:15:15.953Z,101511.36
2018-07-08T02:17:44.722Z,101513.73
2018-07-08T02:20:13.468Z,101519.45
2018-07-08T02:22:42.140Z,101518.64
2018-07-08T02:25:11.557Z,101512.49
2018-07-08T02:27:41.763Z,101515.39
2018-07-08T02:30:10.518Z,101515.30
2018-07-08T02:32:39.562Z,101514.27
2018-07-08T02:35:08.233Z,101513.12
2018-07-08T02:37:36.986Z,101516.88
2018-07-08T02:40:06.144Z,101510.73
2018-07-08T02:42:35.538Z,101519.97
2018-07-08T02:45:04.246Z,101524.02
2018-07-08T02:47:33.021Z,101516.67
2018-07-08T02:50:01.715Z,101520.69
2018-07-08T02:52:30.538Z,101527.44
2018-07-08T02:54:59.249Z,101521.33
2018-07-08T02:57:28.223Z,101518.63
2018-07-08T02:59:56.970Z,101518.10
2018-07-08T03:02:25.711Z,101514.38
2018-07-08T03:04:54.400Z,101514.80
2018-07-08T03:07:24.242Z,101522.98
2018-07-08T03:09:53.275Z,101519.13
2018-07-08T03:12:23.528Z,101517.91
2018-07-08T03:14:52.233Z,101505.95
2018-07-08T03:17:21.551Z,101507.30
2018-07-08T03:19:50.341Z,101513.97
2018-07-08T03:22:19.014Z,101509.09
2018-07-08T03:24:47.709Z,101512.10
2018-07-08T03:27:16.405Z,101512.18
2018-07-08T03:29:45.046Z,101508.97
2018-07-08T03:32:13.808Z,101512.62
2018-07-08T03:34:42.538Z,101517.07
2018-07-08T03:37:11.772Z,101518.42
2018-07-08T03:39:40.430Z,101514.38
2018-07-08T03:42:09.140Z,101512.07
2018-07-08T03:44:37.798Z,101519.38
2018-07-08T03:47:06.475Z,101519.66
2018-07-08T03:49:35.160Z,101517.19
2018-07-08T03:52:04.398Z,101512.70
2018-07-08T03:54:33.800Z,101521.52
2018-07-08T03:57:03.632Z,101514.38
2018-07-08T03:59:33.263Z,101522.36
2018-07-08T04:02:03.120Z,101524.66
2018-07-08T04:04:32.411Z,101517.47
2018-07-08T04:07:01.681Z,101518.42
2018-07-08T04:09:30.673Z,101515.72
2018-07-08T04:12:00.252Z,101529.02
2018-07-08T04:14:30.020Z,101535.77
2018-07-08T04:16:59.353Z,101533.79
2018-07-08T04:19:29.214Z,101533.07
2018-07-08T04:21:59.731Z,101532.76
2018-07-08T04:24:28.941Z,101536.48
2018-07-08T04:26:58.020Z,101534.83
2018-07-08T04:29:26.948Z,101533.67
2018-07-08T04:31:55.907Z,101548.76
2018-07-08T04:34:24.631Z,101539.10
2018-07-08T04:36:53.341Z,101546.38
2018-07-08T04:39:22.003Z,101552.06
2018-07-08T04:41:50.721Z,101544.27
2018-07-08T04:44:19.410Z,101544.19
2018-07-08T04:46:48.120Z,101550.62
2018-07-08T04:49:16.778Z,101549.79
2018-07-08T04:51:45.516Z,101557.17
2018-07-08T04:54:14.119Z,101551.97
2018-07-08T04:56:43.095Z,101552.29
2018-07-08T04:59:11.774Z,101554.36
2018-07-08T05:01:40.444Z,101550.50
2018-07-08T05:04:09.384Z,101554.67
2018-07-08T05:06:38.586Z,101550.94
2018-07-08T05:09:07.599Z,101551.25
2018-07-08T05:11:36.568Z,101556.02
2018-07-08T05:14:05.229Z,101560.27
2018-07-08T05:16:33.981Z,101562.14
2018-07-08T05:19:02.613Z,101561.51
2018-07-08T05:21:31.449Z,101558.09
2018-07-08T05:24:00.386Z,101559.95
2018-07-08T05:26:29.358Z,101554.98
2018-07-08T05:28:58.308Z,101558.70
2018-07-08T05:31:27.071Z,101564.21
2018-07-08T05:33:55.755Z,101568.05
2018-07-08T05:36:24.369Z,101568.55
2018-07-08T05:38:53.130Z,101561.09
2018-07-08T05:41:21.769Z,101560.25
2018-07-08T05:43:50.455Z,101566.29
2018-07-08T05:46:19.106Z,101567.86
2018-07-08T05:48:47.897Z,101568.37
2018-07-08T05:51:16.587Z,101569.31
2018-07-08T05:53:46.134Z,101570.97
2018-07-08T05:56:14.808Z,101569.83
2018-07-08T05:58:43.636Z,101573.36
2018-07-08T06:01:12.254Z,101576.27
2018-07-08T06:03:42.874Z,101576.06
2018-07-08T06:06:14.150Z,101574.80
2018-07-08T06:08:43.405Z,101578.14
2018-07-08T06:11:12.035Z,101576.56
2018-07-08T06:13:40.821Z,101579.80
2018-07-08T06:16:09.479Z,101583.47
2018-07-08T06:18:38.376Z,101582.72
2018-07-08T06:21:07.501Z,101581.80
2018-07-08T06:23:36.745Z,101580.24
2018-07-08T06:26:06.167Z,101585.13
2018-07-08T06:28:34.872Z,101580.13
2018-07-08T06:31:03.485Z,101588.63
2018-07-08T06:33:32.492Z,101589.37
2018-07-08T06:36:01.454Z,101587.59
2018-07-08T06:38:30.189Z,101592.91
2018-07-08T06:40:59.104Z,101597.59
2018-07-08T06:43:28.277Z,101600.07
2018-07-08T06:45:57.606Z,101595.41
2018-07-08T06:48:26.581Z,101598.63
2018-07-08T06:50:55.519Z,101596.13
2018-07-08T06:53:24.201Z,101603.41
2018-07-08T06:55:52.886Z,101599.44
2018-07-08T06:58:21.847Z,101603.72
2018-07-08T07:00:50.883Z,101601.93
2018-07-08T07:03:19.977Z,101606.61
2018-07-08T07:05:48.920Z,101608.29
2018-07-08T07:08:17.988Z,101607.56
2018-07-08T07:10:47.034Z,101604.84
2018-07-08T07:13:16.195Z,101599.98
2018-07-08T07:15:45.683Z,101605.36
2018-07-08T07:18:14.626Z,101602.77
2018-07-08T07:20:43.270Z,101603.59
2018-07-08T07:23:12.237Z,101599.77
2018-07-08T07:25:40.898Z,101602.87
2018-07-08T07:28:09.527Z,101599.77
2018-07-08T07:30:38.171Z,101596.11
2018-07-08T07:33:07.257Z,101599.56
2018-07-08T07:35:36.216Z,101597.48
2018-07-08T07:38:05.841Z,101594.75
2018-07-08T07:40:34.499Z,101601.80
2018-07-08T07:43:03.541Z,101596.50
2018-07-08T07:45:32.617Z,101599.41
2018-07-08T07:48:01.236Z,101591.25
2018-07-08T07:50:29.999Z,101587.59
2018-07-08T07:52:58.681Z,101596.09
2018-07-08T07:55:27.302Z,101591.23
2018-07-08T07:57:55.994Z,101595.03
2018-07-08T08:00:24.883Z,101594.89
2018-07-08T08:02:53.939Z,101594.79
2018-07-08T08:05:22.738Z,101597.91
2018-07-08T08:07:51.845Z,101602.75
2018-07-08T08:10:20.864Z,101607.20
2018-07-08T08:12:49.642Z,101612.86
2018-07-08T08:15:18.507Z,101609.98
2018-07-08T08:17:47.396Z,101609.43
2018-07-08T08:20:16.066Z,101608.67
2018-07-08T08:22:44.753Z,101608.66
2018-07-08T08:25:13.444Z,101613.48
2018-07-08T08:27:43.274Z,101614.17
2018-07-08T08:30:12.152Z,101610.37
2018-07-08T08:32:40.886Z,101610.02
2018-07-08T08:35:11.780Z,101617.85
2018-07-08T08:37:45.522Z,101623.08
2018-07-08T08:40:15.635Z,101623.70
2018-07-08T08:42:44.287Z,101613.86
2018-07-08T08:45:14.257Z,101614.80
2018-07-08T08:47:43.293Z,101614.44
2018-07-08T08:50:12.745Z,101608.85
2018-07-08T08:52:41.423Z,101614.49
2018-07-08T08:55:11.208Z,101610.66
2018-07-08T08:57:40.015Z,101610.83
2018-07-08T09:00:11.083Z,101608.37
2018-07-08T09:02:40.496Z,101612.63
2018-07-08T09:05:10.187Z,101611.48
2018-07-08T09:07:38.899Z,101611.56
2018-07-08T09:10:07.798Z,101612.09
2018-07-08T09:12:36.741Z,101609.14
2018-07-08T09:15:05.558Z,101605.55
2018-07-08T09:17:34.633Z,101607.48
2018-07-08T09:20:03.426Z,101601.77
2018-07-08T09:22:32.180Z,101604.90
2018-07-08T09:25:01.384Z,101598.84
2018-07-08T09:27:30.055Z,101598.34
2018-07-08T09:29:58.804Z,101596.86
2018-07-08T09:32:27.837Z,101588.37
2018-07-08T09:34:56.544Z,101594.62
2018-07-08T09:37:25.347Z,101590.23
2018-07-08T09:39:54.516Z,101598.23
2018-07-08T09:42:23.170Z,101595.94
2018-07-08T09:44:52.413Z,101596.66
2018-07-08T09:47:21.073Z,101601.29
2018-07-08T09:49:49.753Z,101599.78
2018-07-08T09:52:18.451Z,101600.64
2018-07-08T09:54:47.504Z,101604.42
2018-07-08T09:57:16.556Z,101603.42
2018-07-08T09:59:45.976Z,101613.05
2018-07-08T10:02:14.766Z,101614.02
2018-07-08T10:04:43.494Z,101615.84
2018-07-08T10:07:12.131Z,101610.30
2018-07-08T10:09:41.183Z,101611.19
2018-07-08T10:12:09.957Z,101614.38
2018-07-08T10:14:38.639Z,101610.91
2018-07-08T10:17:07.381Z,101610.70
2018-07-08T10:19:36.172Z,101610.03
2018-07-08T10:22:05.014Z,101605.48
2018-07-08T10:24:33.791Z,101601.99
2018-07-08T10:27:21.540Z,101610.89
2018-07-08T10:29:50.227Z,101605.79
2018-07-08T10:32:19.272Z,101608.44
2018-07-08T10:34:48.039Z,101607.71
2018-07-08T10:37:17.263Z,101605.17
2018-07-08T10:39:45.945Z,101600.03
2018-07-08T10:42:14.965Z,101598.14
2018-07-08T10:44:43.786Z,101609.68
2018-07-08T10:47:12.562Z,101605.25
2018-07-08T10:49:42.045Z,101606.45
2018-07-08T10:52:10.795Z,101604.30
2018-07-08T10:54:39.822Z,101605.12
2018-07-08T10:57:08.836Z,101598.02
2018-07-08T10:59:37.531Z,101601.70
2018-07-08T11:02:06.429Z,101591.97
2018-07-08T11:04:35.178Z,101590.30
2018-07-08T11:07:04.229Z,101592.51
2018-07-08T11:09:33.570Z,101591.38
2018-07-08T11:12:02.713Z,101593.30
2018-07-08T11:14:31.686Z,101594.95
2018-07-08T11:17:00.376Z,101585.84
2018-07-08T11:19:29.496Z,101581.61
2018-07-08T11:21:58.285Z,101589.02
2018-07-08T11:24:26.940Z,101584.91
2018-07-08T11:26:55.581Z,101592.02
2018-07-08T11:29:24.292Z,101582.92
2018-07-08T11:31:53.269Z,101588.06
2018-07-08T11:34:21.997Z,101580.43
2018-07-08T11:36:50.779Z,101578.61
2018-07-08T11:39:20.028Z,101579.67
2018-07-08T11:41:48.783Z,101582.02
2018-07-08T11:44:17.454Z,101580.30
2018-07-08T11:46:46.360Z,101581.55
2018-07-08T11:49:15.526Z,101583.14
2018-07-08T11:51:44.403Z,101578.06
2018-07-08T11:54:13.119Z,101578.29
2018-07-08T11:56:42.203Z,101582.03
2018-07-08T11:59:10.929Z,101585.38
2018-07-08T12:01:39.595Z,101585.52
2018-07-08T12:04:08.339Z,101589.09
2018-07-08T12:06:37.102Z,101588.88
2018-07-08T12:09:06.424Z,101587.56
2018-07-08T12:11:35.220Z,101587.03
2018-07-08T12:14:03.940Z,101584.21
2018-07-08T12:16:32.756Z,101588.16
2018-07-08T12:19:01.487Z,101585.17
2018-07-08T12:21:30.604Z,101582.33
2018-07-08T12:23:59.338Z,101586.27
2018-07-08T12:26:28.079Z,101587.96
2018-07-08T12:28:56.830Z,101589.31
2018-07-08T12:31:25.555Z,101593.57
2018-07-08T12:33:54.759Z,101593.87
2018-07-08T12:36:23.871Z,101594.47
2018-07-08T12:38:53.020Z,101589.51
2018-07-08T12:41:22.090Z,101591.03
2018-07-08T12:43:50.824Z,101588.98
2018-07-08T12:46:20.100Z,101586.41
2018-07-08T12:48:48.873Z,101586.19
2018-07-08T12:51:17.588Z,101591.55
2018-07-08T12:53:46.583Z,101590.58
2018-07-08T12:56:15.696Z,101590.39
2018-07-08T12:58:44.709Z,101588.23
2018-07-08T13:01:13.520Z,101579.70
2018-07-08T13:03:42.267Z,101576.21
2018-07-08T13:06:11.326Z,101571.49
2018-07-08T13:08:40.621Z,101574.80
2018-07-08T13:11:11.106Z,101571.16
2018-07-08T13:13:39.869Z,101573.45
2018-07-08T13:16:09.277Z,101567.69
2018-07-08T13:18:38.475Z,101567.97
2018-07-08T13:21:10.718Z,101571.27
2018-07-08T13:23:39.839Z,101560.52
2018-07-08T13:26:08.705Z,101556.83
2018-07-08T13:28:37.560Z,101557.88
2018-07-08T13:31:07.065Z,101558.83
2018-07-08T13:33:35.900Z,101557.56
2018-07-08T13:36:05.017Z,101558.05
2018-07-08T13:38:33.780Z,101549.42
2018-07-08T13:41:02.514Z,101548.35
2018-07-08T13:43:31.639Z,101548.40
2018-07-08T13:46:00.395Z,101549.81
2018-07-08T13:48:29.448Z,101554.48
2018-07-08T13:50:58.287Z,101553.23
2018-07-08T13:53:27.344Z,101545.23
2018-07-08T13:55:56.029Z,101541.91
2018-07-08T13:58:24.741Z,101541.37
2018-07-08T14:00:53.575Z,101547.45
2018-07-08T14:03:22.587Z,101540.83
2018-07-08T14:05:51.201Z,101535.28
2018-07-08T14:08:19.929Z,101533.46
2018-07-08T14:10:48.693Z,101530.49
2018-07-08T14:13:18.122Z,101533.97
2018-07-08T14:15:47.209Z,101531.91
2018-07-08T14:18:15.884Z,101524.86
2018-07-08T14:20:44.768Z,101534.89
2018-07-08T14:23:13.369Z,101523.48
2018-07-08T14:25:42.253Z,101523.25
2018-07-08T14:28:10.918Z,101515.64
2018-07-08T14:30:39.540Z,101515.02
2018-07-08T14:33:08.507Z,101514.28
2018-07-08T14:35:37.295Z,101513.37
2018-07-08T14:38:06.266Z,101510.39
2018-07-08T14:40:35.621Z,101506.24
2018-07-08T14:43:04.295Z,101496.47
2018-07-08T14:45:33.268Z,101501.30
2018-07-08T14:48:02.329Z,101497.38
2018-07-08T14:50:31.553Z,101501.09
2018-07-08T14:53:00.215Z,101496.66
2018-07-08T14:55:29.009Z,101493.12
2018-07-08T14:57:57.663Z,101486.64
2018-07-08T15:00:26.718Z,101488.88
2018-07-08T15:02:55.753Z,101483.95
2018-07-08T15:05:25.090Z,101486.16
2018-07-08T15:07:53.760Z,101486.39
2018-07-08T15:10:22.450Z,101480.36
2018-07-08T15:12:51.110Z,101481.17
2018-07-08T15:15:20.159Z,101481.44
2018-07-08T15:17:48.786Z,101480.33
2018-07-08T15:20:17.738Z,101477.56
2018-07-08T15:22:46.594Z,101473.14
2018-07-08T15:25:15.600Z,101472.80
2018-07-08T15:27:44.286Z,101468.89
2018-07-08T15:30:13.017Z,101470.52
2018-07-08T15:32:41.735Z,101463.93
2018-07-08T15:35:10.656Z,101472.11
2018-07-08T15:37:40.768Z,101468.86
2018-07-08T15:40:09.840Z,101473.78
2018-07-08T15:42:38.537Z,101466.31
2018-07-08T15:45:08.228Z,101460.52
2018-07-08T15:47:36.908Z,101452.23
2018-07-08T15:50:05.971Z,101457.37
2018-07-08T15:52:34.732Z,101448.06
2018-07-08T15:55:03.610Z,101458.10
2018-07-08T15:57:32.512Z,101457.80
2018-07-08T16:00:01.189Z,101464.25
2018-07-08T16:02:30.555Z,101459.05
2018-07-08T16:04:59.332Z,101462.06
2018-07-08T16:07:28.061Z,101463.37
2018-07-08T16:09:57.027Z,101457.88
2018-07-08T16:12:25.747Z,101459.05
2018-07-08T16:14:54.977Z,101461.67
2018-07-08T16:17:23.862Z,101458.03
2018-07-08T16:19:52.596Z,101453.91
2018-07-08T16:22:21.799Z,101450.95
2018-07-08T16:24:50.619Z,101450.84
2018-07-08T16:27:19.646Z,101454.34
2018-07-08T16:29:48.612Z,101449.12
2018-07-08T16:32:17.663Z,101449.26
2018-07-08T16:34:46.720Z,101450.09
2018-07-08T16:37:15.429Z,101443.25
2018-07-08T16:39:44.141Z,101449.95
2018-07-08T16:42:12.845Z,101449.66
2018-07-08T16:44:42.070Z,101448.52
2018-07-08T16:47:13.168Z,101448.26
2018-07-08T16:49:41.861Z,101444.38
2018-07-08T16:52:10.632Z,101443.63
2018-07-08T16:54:39.693Z,101449.02
2018-07-08T16:57:08.473Z,101438.59
2018-07-08T16:59:37.150Z,101450.09
2018-07-08T17:02:12.569Z,101442.73
2018-07-08T17:04:41.433Z,101449.55
2018-07-08T17:07:10.447Z,101447.36
2018-07-08T17:09:39.222Z,101438.59
2018-07-08T17:12:08.086Z,101439.05
2018-07-08T17:14:37.271Z,101439.55
2018-07-08T17:17:06.055Z,101441.62
2018-07-08T17:19:34.790Z,101443.53
2018-07-08T17:22:03.612Z,101445.14
2018-07-08T17:24:32.558Z,101439.84
2018-07-08T17:27:01.287Z,101438.77
2018-07-08T17:29:30.249Z,101438.28
2018-07-08T17:31:59.303Z,101436.83
2018-07-08T17:34:28.136Z,101431.59
2018-07-08T17:36:57.423Z,101435.13
2018-07-08T17:39:26.246Z,101437.53
2018-07-08T17:41:55.346Z,101433.69
2018-07-08T17:44:24.400Z,101437.33
2018-07-08T17:46:53.216Z,101438.02
2018-07-08T17:49:22.182Z,101436.87
2018-07-08T17:51:51.710Z,101442.61
2018-07-08T17:54:21.509Z,101437.89
2018-07-08T17:56:50.244Z,101443.69
2018-07-08T17:59:19.032Z,101444.80
2018-07-08T18:01:48.163Z,101442.52
2018-07-08T18:04:16.884Z,101444.66
2018-07-08T18:06:46.290Z,101443.30
2018-07-08T18:09:15.551Z,101443.00
2018-07-08T18:11:44.371Z,101438.41
2018-07-08T18:14:13.420Z,101439.98
2018-07-08T18:16:42.702Z,101441.93
2018-07-08T18:19:11.588Z,101442.95
2018-07-08T18:21:40.811Z,101442.61
2018-07-08T18:24:09.537Z,101439.59
2018-07-08T18:26:38.229Z,101439.88
2018-07-08T18:29:07.009Z,101440.08
2018-07-08T18:31:35.900Z,101446.90
2018-07-08T18:34:04.622Z,101444.66
2018-07-08T18:36:33.337Z,101453.38
2018-07-08T18:39:02.127Z,101446.75
2018-07-08T18:41:30.941Z,101447.32
2018-07-08T18:43:59.727Z,101445.68
2018-07-08T18:46:28.501Z,101452.73
2018-07-08T18:48:57.468Z,101451.32
2018-07-08T18:51:26.192Z,101452.67
2018-07-08T18:53:54.853Z,101449.81
2018-07-08T18:56:24.098Z,101456.05
2018-07-08T18:58:53.026Z,101450.59
2018-07-08T19:01:21.947Z,101455.27
2018-07-08T19:03:52.066Z,101456.71
2018-07-08T19:06:20.944Z,101460.33
2018-07-08T19:08:49.700Z,101460.27
2018-07-08T19:11:18.415Z,101465.64
2018-07-08T19:13:47.727Z,101468.25
2018-07-08T19:16:16.857Z,101461.67
2018-07-08T19:18:45.628Z,101467.31
2018-07-08T19:21:14.392Z,101471.74
2018-07-08T19:23:43.429Z,101472.15
2018-07-08T19:26:12.388Z,101471.05
2018-07-08T19:28:41.086Z,101470.88
2018-07-08T19:31:09.849Z,101478.69
2018-07-08T19:33:38.760Z,101479.80
2018-07-08T19:36:07.700Z,101479.45
2018-07-08T19:38:36.511Z,101489.70
2018-07-08T19:41:05.868Z,101481.19
2018-07-08T19:43:34.827Z,101489.93
2018-07-08T19:46:04.026Z,101490.71
2018-07-08T19:48:33.614Z,101489.05
2018-07-08T19:51:02.407Z,101490.34
2018-07-08T19:53:31.431Z,101496.09
2018-07-08T19:56:00.982Z,101487.57
2018-07-08T19:58:29.827Z,101485.09
2018-07-08T20:00:58.631Z,101490.52
2018-07-08T20:03:27.327Z,101489.16
2018-07-08T20:05:55.971Z,101489.05
2018-07-08T20:08:24.738Z,101490.95
2018-07-08T20:10:53.849Z,101489.80
2018-07-08T20:13:22.700Z,101498.30
2018-07-08T20:15:52.039Z,101501.83
2018-07-08T20:18:20.808Z,101499.05
2018-07-08T20:20:49.636Z,101504.73
2018-07-08T20:23:19.447Z,101501.98
2018-07-08T20:25:48.319Z,101504.13
2018-07-08T20:28:17.145Z,101504.13
2018-07-08T20:30:46.266Z,101501.88
2018-07-08T20:33:14.948Z,101500.23
2018-07-08T20:35:43.950Z,101500.20
2018-07-08T20:38:12.561Z,101506.19
2018-07-08T20:40:41.679Z,101507.84
2018-07-08T20:43:10.566Z,101501.98
2018-07-08T20:45:39.394Z,101509.61
2018-07-08T20:48:08.233Z,101503.35
2018-07-08T20:50:36.926Z,101512.86
2018-07-08T20:53:05.723Z,101506.34
2018-07-08T20:55:34.577Z,101507.49
2018-07-08T20:58:03.311Z,101505.30
2018-07-08T21:00:32.330Z,101505.22
2018-07-08T21:03:01.074Z,101507.44
2018-07-08T21:05:30.422Z,101507.95
2018-07-08T21:07:59.202Z,101510.86
2018-07-08T21:10:28.029Z,101514.67
2018-07-08T21:12:56.673Z,101513.76
2018-07-08T21:15:25.299Z,101513.46
2018-07-08T21:17:53.976Z,101514.77
2018-07-08T21:20:22.761Z,101511.96
2018-07-08T21:22:51.800Z,101515.98
2018-07-08T21:25:20.510Z,101518.92
2018-07-08T21:27:50.242Z,101516.88
2018-07-08T21:30:18.866Z,101515.44
2018-07-08T21:32:47.476Z,101517.35
2018-07-08T21:35:17.083Z,101518.98
2018-07-08T21:37:46.137Z,101516.14
2018-07-08T21:40:14.825Z,101519.40
2018-07-08T21:42:43.782Z,101515.02
2018-07-08T21:45:12.763Z,101516.94
2018-07-08T21:47:41.580Z,101511.20
2018-07-08T21:50:10.180Z,101515.81
2018-07-08T21:52:38.931Z,101521.26
2018-07-08T21:55:07.768Z,101511.97
2018-07-08T21:57:36.471Z,101520.96
2018-07-08T22:00:05.786Z,101518.48
2018-07-08T22:02:34.626Z,101518.71
2018-07-08T22:05:03.528Z,101511.37
2018-07-08T22:07:37.742Z,101513.50
2018-07-08T22:10:07.887Z,101515.95
2018-07-08T22:12:38.172Z,101517.02
2018-07-08T22:15:06.999Z,101518.39
2018-07-08T22:17:35.638Z,101516.48
2018-07-08T22:20:04.665Z,101517.02
2018-07-08T22:22:33.420Z,101521.34
2018-07-08T22:25:02.067Z,101522.11
2018-07-08T22:27:32.043Z,101518.53
2018-07-08T22:30:00.711Z,101520.06
2018-07-08T22:32:29.414Z,101509.91
2018-07-08T22:34:58.716Z,101513.39
2018-07-08T22:37:27.525Z,101520.44
2018-07-08T22:39:56.380Z,101523.16
2018-07-08T22:42:25.394Z,101521.23
2018-07-08T22:44:54.908Z,101523.36
2018-07-08T22:47:23.552Z,101521.10
2018-07-08T22:49:52.259Z,101519.73
2018-07-08T22:52:21.113Z,101520.34
2018-07-08T22:54:49.768Z,101521.70
2018-07-08T22:57:18.436Z,101524.72
2018-07-08T22:59:58.228Z,101520.34
2018-07-08T23:02:39.288Z,101521.17
2018-07-08T23:05:07.972Z,101519.27
2018-07-08T23:07:36.670Z,101524.12
2018-07-08T23:10:05.350Z,101514.30
2018-07-08T23:12:34.090Z,101518.08
2018-07-08T23:15:03.070Z,101517.52
2018-07-08T23:17:32.155Z,101518.88
2018-07-08T23:20:01.917Z,101517.52
2018-07-08T23:22:42.178Z,101519.14
2018-07-08T23:25:12.368Z,101520.80
2018-07-08T23:27:41.333Z,101519.61
2018-07-08T23:30:10.329Z,101514.41
2018-07-08T23:32:39.481Z,101518.19
2018-07-08T23:35:08.218Z,101517.06
2018-07-08T23:37:36.922Z,101516.49
2018-07-08T23:40:05.616Z,101512.11
2018-07-08T23:42:34.264Z,101518.16
2018-07-08T23:45:02.964Z,101511.58
2018-07-08T23:47:31.671Z,101512.88
2018-07-08T23:50:00.651Z,101510.92
2018-07-08T23:52:29.626Z,101515.80
2018-07-08T23:54:58.294Z,101513.31
2018-07-08T23:57:27.018Z,101518.22
2018-07-08T23:59:56.039Z,101521.40
